sensor_id;sensor_type;location;lat;lon;timestamp;P1;durP1;ratioP1;P2;durP2;ratioP2
42420;SDS011;28063;48.140;11.588;2022-08-25T00:04:30;3.83;;;3.53;;
42420;SDS011;28063;48.140;11.588;2022-08-25T00:10:39;5.10;;;4.25;;
42420;SDS011;28063;48.140;11.588;2022-08-25T00:13:28;4.68;;;4.28;;
42420;SDS011;28063;48.140;11.588;2022-08-25T00:16:43;4.60;;;4.20;;
42420;SDS011;28063;48.140;11.588;2022-08-25T00:19:42;4.40;;;3.90;;
42420;SDS011;28063;48.140;11.588;2022-08-25T04:31:37;14.13;;;10.52;;
42420;SDS011;28063;48.140;11.588;2022-08-25T04:34:05;17.23;;;12.15;;
42420;SDS011;28063;48.140;11.588;2022-08-25T04:36:31;16.00;;;12.25;;
42420;SDS011;28063;48.140;11.588;2022-08-25T04:38:57;15.25;;;11.23;;
42420;SDS011;28063;48.140;11.588;2022-08-25T04:41:24;15.65;;;12.70;;
42420;SDS011;28063;48.140;11.588;2022-08-25T04:43:50;15.20;;;12.35;;
42420;SDS011;28063;48.140;11.588;2022-08-25T04:46:18;20.17;;;12.13;;
42420;SDS011;28063;48.140;11.588;2022-08-25T04:48:45;14.65;;;11.75;;
42420;SDS011;28063;48.140;11.588;2022-08-25T04:51:13;13.25;;;11.20;;
42420;SDS011;28063;48.140;11.588;2022-08-25T04:53:44;13.50;;;11.43;;
42420;SDS011;28063;48.140;11.588;2022-08-25T04:56:12;14.73;;;11.85;;
42420;SDS011;28063;48.140;11.588;2022-08-25T04:58:40;16.38;;;13.95;;
42420;SDS011;28063;48.140;11.588;2022-08-25T05:01:06;17.35;;;13.75;;
42420;SDS011;28063;48.140;11.588;2022-08-25T05:03:36;15.60;;;12.75;;
42420;SDS011;28063;48.140;11.588;2022-08-25T05:06:03;15.63;;;11.07;;
42420;SDS011;28063;48.140;11.588;2022-08-25T05:08:29;11.38;;;9.93;;
42420;SDS011;28063;48.140;11.588;2022-08-25T05:10:56;11.43;;;10.05;;
42420;SDS011;28063;48.140;11.588;2022-08-25T05:13:23;12.57;;;9.43;;
42420;SDS011;28063;48.140;11.588;2022-08-25T05:15:56;15.10;;;11.20;;
42420;SDS011;28063;48.140;11.588;2022-08-25T05:18:24;14.13;;;11.15;;
42420;SDS011;28063;48.140;11.588;2022-08-25T05:20:51;13.43;;;10.80;;
42420;SDS011;28063;48.140;11.588;2022-08-25T05:23:18;13.07;;;9.88;;
42420;SDS011;28063;48.140;11.588;2022-08-25T05:25:48;17.27;;;11.60;;
42420;SDS011;28063;48.140;11.588;2022-08-25T05:28:15;14.68;;;11.57;;
42420;SDS011;28063;48.140;11.588;2022-08-25T05:30:42;11.88;;;10.07;;
42420;SDS011;28063;48.140;11.588;2022-08-25T05:33:08;13.52;;;10.60;;
42420;SDS011;28063;48.140;11.588;2022-08-25T05:35:35;12.07;;;9.15;;
42420;SDS011;28063;48.140;11.588;2022-08-25T05:38:01;14.55;;;11.27;;
42420;SDS011;28063;48.140;11.588;2022-08-25T05:40:28;12.35;;;9.88;;
42420;SDS011;28063;48.140;11.588;2022-08-25T05:42:55;13.05;;;9.38;;
42420;SDS011;28063;48.140;11.588;2022-08-25T05:45:21;19.33;;;13.55;;
42420;SDS011;28063;48.140;11.588;2022-08-25T05:47:47;16.27;;;12.27;;
42420;SDS011;28063;48.140;11.588;2022-08-25T05:50:13;19.25;;;12.25;;
42420;SDS011;28063;48.140;11.588;2022-08-25T05:52:39;14.75;;;11.63;;
42420;SDS011;28063;48.140;11.588;2022-08-25T05:55:05;13.43;;;10.15;;
42420;SDS011;28063;48.140;11.588;2022-08-25T05:57:31;15.18;;;11.75;;
42420;SDS011;28063;48.140;11.588;2022-08-25T06:00:16;14.43;;;10.85;;
42420;SDS011;28063;48.140;11.588;2022-08-25T06:13:26;14.73;;;10.00;;
42420;SDS011;28063;48.140;11.588;2022-08-25T06:30:16;11.73;;;9.40;;
42420;SDS011;28063;48.140;11.588;2022-08-25T06:36:52;7.97;;;6.70;;
42420;SDS011;28063;48.140;11.588;2022-08-25T06:46:11;8.40;;;6.15;;
42420;SDS011;28063;48.140;11.588;2022-08-25T06:55:12;6.80;;;6.18;;
42420;SDS011;28063;48.140;11.588;2022-08-25T06:57:59;8.40;;;6.32;;
42420;SDS011;28063;48.140;11.588;2022-08-25T07:00:25;7.85;;;7.03;;
42420;SDS011;28063;48.140;11.588;2022-08-25T07:02:51;7.03;;;6.32;;
42420;SDS011;28063;48.140;11.588;2022-08-25T07:05:17;8.27;;;7.40;;
42420;SDS011;28063;48.140;11.588;2022-08-25T07:07:43;9.18;;;7.68;;
42420;SDS011;28063;48.140;11.588;2022-08-25T07:10:10;7.53;;;6.72;;
42420;SDS011;28063;48.140;11.588;2022-08-25T07:12:37;9.52;;;7.72;;
42420;SDS011;28063;48.140;11.588;2022-08-25T07:15:04;7.60;;;6.18;;
42420;SDS011;28063;48.140;11.588;2022-08-25T07:17:30;7.97;;;6.72;;
42420;SDS011;28063;48.140;11.588;2022-08-25T07:19:56;7.28;;;6.57;;
42420;SDS011;28063;48.140;11.588;2022-08-25T07:22:22;6.57;;;5.38;;
42420;SDS011;28063;48.140;11.588;2022-08-25T07:24:47;5.38;;;4.88;;
42420;SDS011;28063;48.140;11.588;2022-08-25T07:27:13;5.97;;;5.15;;
42420;SDS011;28063;48.140;11.588;2022-08-25T07:29:39;6.57;;;5.68;;
42420;SDS011;28063;48.140;11.588;2022-08-25T07:32:05;9.70;;;8.02;;
42420;SDS011;28063;48.140;11.588;2022-08-25T07:34:31;10.25;;;8.00;;
42420;SDS011;28063;48.140;11.588;2022-08-25T07:37:36;8.00;;;6.95;;
42420;SDS011;28063;48.140;11.588;2022-08-25T07:40:03;8.30;;;7.07;;
42420;SDS011;28063;48.140;11.588;2022-08-25T07:42:30;7.32;;;6.53;;
42420;SDS011;28063;48.140;11.588;2022-08-25T07:44:55;12.30;;;7.32;;
42420;SDS011;28063;48.140;11.588;2022-08-25T07:47:21;7.88;;;7.07;;
42420;SDS011;28063;48.140;11.588;2022-08-25T07:49:46;9.55;;;7.70;;
42420;SDS011;28063;48.140;11.588;2022-08-25T07:52:12;9.27;;;7.35;;
42420;SDS011;28063;48.140;11.588;2022-08-25T07:54:38;14.70;;;8.25;;
42420;SDS011;28063;48.140;11.588;2022-08-25T07:57:05;7.95;;;7.15;;
42420;SDS011;28063;48.140;11.588;2022-08-25T07:59:32;11.18;;;8.55;;
42420;SDS011;28063;48.140;11.588;2022-08-25T08:01:58;9.60;;;8.13;;
42420;SDS011;28063;48.140;11.588;2022-08-25T08:04:24;7.82;;;7.03;;
42420;SDS011;28063;48.140;11.588;2022-08-25T08:06:50;9.93;;;7.55;;
42420;SDS011;28063;48.140;11.588;2022-08-25T08:09:15;8.48;;;7.18;;
42420;SDS011;28063;48.140;11.588;2022-08-25T08:11:41;10.45;;;6.72;;
42420;SDS011;28063;48.140;11.588;2022-08-25T08:14:08;10.80;;;7.07;;
42420;SDS011;28063;48.140;11.588;2022-08-25T08:16:35;9.32;;;7.20;;
42420;SDS011;28063;48.140;11.588;2022-08-25T08:19:03;8.27;;;7.47;;
42420;SDS011;28063;48.140;11.588;2022-08-25T08:21:31;9.95;;;7.00;;
42420;SDS011;28063;48.140;11.588;2022-08-25T08:23:58;6.63;;;6.00;;
42420;SDS011;28063;48.140;11.588;2022-08-25T08:26:24;5.65;;;5.00;;
42420;SDS011;28063;48.140;11.588;2022-08-25T08:28:52;6.57;;;5.65;;
42420;SDS011;28063;48.140;11.588;2022-08-25T08:31:18;5.50;;;4.75;;
42420;SDS011;28063;48.140;11.588;2022-08-25T08:33:46;9.75;;;6.35;;
42420;SDS011;28063;48.140;11.588;2022-08-25T08:36:13;7.65;;;6.05;;
42420;SDS011;28063;48.140;11.588;2022-08-25T08:38:40;9.07;;;6.60;;
42420;SDS011;28063;48.140;11.588;2022-08-25T08:55:41;5.85;;;4.90;;
42420;SDS011;28063;48.140;11.588;2022-08-25T08:58:14;5.28;;;4.13;;
42420;SDS011;28063;48.140;11.588;2022-08-25T09:00:46;7.20;;;5.43;;
42420;SDS011;28063;48.140;11.588;2022-08-25T09:03:32;6.65;;;6.05;;
42420;SDS011;28063;48.140;11.588;2022-08-25T09:06:02;8.60;;;5.90;;
42420;SDS011;28063;48.140;11.588;2022-08-25T09:08:37;8.95;;;7.38;;
42420;SDS011;28063;48.140;11.588;2022-08-25T09:11:29;8.85;;;6.43;;
42420;SDS011;28063;48.140;11.588;2022-08-25T09:28:27;5.78;;;5.25;;
42420;SDS011;28063;48.140;11.588;2022-08-25T09:31:09;7.22;;;6.03;;
42420;SDS011;28063;48.140;11.588;2022-08-25T09:33:41;9.30;;;6.05;;
42420;SDS011;28063;48.140;11.588;2022-08-25T09:36:07;6.68;;;5.57;;
42420;SDS011;28063;48.140;11.588;2022-08-25T09:38:32;6.78;;;4.50;;
42420;SDS011;28063;48.140;11.588;2022-08-25T09:40:59;5.95;;;4.97;;
42420;SDS011;28063;48.140;11.588;2022-08-25T09:43:41;6.82;;;5.43;;
42420;SDS011;28063;48.140;11.588;2022-08-25T09:46:22;6.22;;;5.72;;
42420;SDS011;28063;48.140;11.588;2022-08-25T09:48:56;6.03;;;4.85;;
42420;SDS011;28063;48.140;11.588;2022-08-25T09:51:35;4.95;;;4.45;;
42420;SDS011;28063;48.140;11.588;2022-08-25T09:54:05;7.43;;;5.70;;
42420;SDS011;28063;48.140;11.588;2022-08-25T09:59:25;5.57;;;4.72;;
42420;SDS011;28063;48.140;11.588;2022-08-25T10:01:54;5.63;;;4.90;;
42420;SDS011;28063;48.140;11.588;2022-08-25T10:04:29;5.18;;;4.35;;
42420;SDS011;28063;48.140;11.588;2022-08-25T10:07:01;4.85;;;4.28;;
42420;SDS011;28063;48.140;11.588;2022-08-25T10:09:59;4.90;;;3.88;;
42420;SDS011;28063;48.140;11.588;2022-08-25T10:12:36;6.95;;;4.18;;
42420;SDS011;28063;48.140;11.588;2022-08-25T10:15:15;4.45;;;3.97;;
42420;SDS011;28063;48.140;11.588;2022-08-25T10:17:40;5.40;;;4.15;;
42420;SDS011;28063;48.140;11.588;2022-08-25T10:22:39;4.80;;;4.22;;
42420;SDS011;28063;48.140;11.588;2022-08-25T10:25:06;6.38;;;3.92;;
42420;SDS011;28063;48.140;11.588;2022-08-25T10:35:55;5.45;;;3.90;;
42420;SDS011;28063;48.140;11.588;2022-08-25T10:47:04;4.68;;;4.35;;
42420;SDS011;28063;48.140;11.588;2022-08-25T10:49:58;4.65;;;4.25;;
42420;SDS011;28063;48.140;11.588;2022-08-25T11:00:17;8.48;;;5.20;;
42420;SDS011;28063;48.140;11.588;2022-08-25T11:05:46;5.88;;;4.90;;
42420;SDS011;28063;48.140;11.588;2022-08-25T11:08:31;5.67;;;5.07;;
42420;SDS011;28063;48.140;11.588;2022-08-25T11:18:55;4.93;;;4.20;;
42420;SDS011;28063;48.140;11.588;2022-08-25T11:21:41;5.28;;;4.78;;
42420;SDS011;28063;48.140;11.588;2022-08-25T11:24:20;4.93;;;4.40;;
42420;SDS011;28063;48.140;11.588;2022-08-25T11:26:56;4.82;;;4.43;;
42420;SDS011;28063;48.140;11.588;2022-08-25T11:29:28;7.35;;;5.32;;
42420;SDS011;28063;48.140;11.588;2022-08-25T11:31:59;6.25;;;5.15;;
42420;SDS011;28063;48.140;11.588;2022-08-25T11:34:26;5.13;;;4.72;;
42420;SDS011;28063;48.140;11.588;2022-08-25T11:37:00;7.32;;;4.93;;
42420;SDS011;28063;48.140;11.588;2022-08-25T11:39:49;6.85;;;5.82;;
42420;SDS011;28063;48.140;11.588;2022-08-25T11:45:27;6.93;;;5.75;;
42420;SDS011;28063;48.140;11.588;2022-08-25T11:51:01;5.72;;;5.03;;
42420;SDS011;28063;48.140;11.588;2022-08-25T11:53:39;9.38;;;6.18;;
42420;SDS011;28063;48.140;11.588;2022-08-25T11:56:08;8.00;;;6.28;;
42420;SDS011;28063;48.140;11.588;2022-08-25T12:01:11;8.43;;;5.75;;
42420;SDS011;28063;48.140;11.588;2022-08-25T12:04:41;7.93;;;5.50;;
42420;SDS011;28063;48.140;11.588;2022-08-25T12:15:13;8.27;;;5.68;;
42420;SDS011;28063;48.140;11.588;2022-08-25T12:18:09;7.22;;;5.20;;
42420;SDS011;28063;48.140;11.588;2022-08-25T12:37:53;10.15;;;5.53;;
42420;SDS011;28063;48.140;11.588;2022-08-25T12:40:33;6.88;;;5.82;;
42420;SDS011;28063;48.140;11.588;2022-08-25T12:43:28;9.88;;;6.85;;
42420;SDS011;28063;48.140;11.588;2022-08-25T12:59:42;11.02;;;6.40;;
42420;SDS011;28063;48.140;11.588;2022-08-25T13:08:34;8.35;;;6.32;;
42420;SDS011;28063;48.140;11.588;2022-08-25T13:16:25;11.05;;;6.35;;
42420;SDS011;28063;48.140;11.588;2022-08-25T13:18:53;13.88;;;7.30;;
42420;SDS011;28063;48.140;11.588;2022-08-25T13:21:33;12.30;;;6.93;;
42420;SDS011;28063;48.140;11.588;2022-08-25T13:24:03;14.68;;;7.15;;
42420;SDS011;28063;48.140;11.588;2022-08-25T13:26:42;11.63;;;6.28;;
42420;SDS011;28063;48.140;11.588;2022-08-25T13:31:55;6.80;;;6.03;;
42420;SDS011;28063;48.140;11.588;2022-08-25T13:34:31;9.00;;;6.43;;
42420;SDS011;28063;48.140;11.588;2022-08-25T13:37:06;14.27;;;6.55;;
42420;SDS011;28063;48.140;11.588;2022-08-25T13:42:48;13.23;;;7.00;;
42420;SDS011;28063;48.140;11.588;2022-08-25T13:45:16;13.18;;;7.18;;
42420;SDS011;28063;48.140;11.588;2022-08-25T13:47:48;12.45;;;7.15;;
42420;SDS011;28063;48.140;11.588;2022-08-25T13:52:52;14.95;;;6.82;;
42420;SDS011;28063;48.140;11.588;2022-08-25T13:55:36;11.32;;;7.00;;
42420;SDS011;28063;48.140;11.588;2022-08-25T13:58:22;12.13;;;7.78;;
42420;SDS011;28063;48.140;11.588;2022-08-25T14:03:37;12.63;;;7.40;;
42420;SDS011;28063;48.140;11.588;2022-08-25T14:08:47;10.20;;;6.53;;
42420;SDS011;28063;48.140;11.588;2022-08-25T14:11:43;9.02;;;6.07;;
42420;SDS011;28063;48.140;11.588;2022-08-25T14:14:13;9.52;;;6.28;;
42420;SDS011;28063;48.140;11.588;2022-08-25T14:17:06;9.25;;;5.93;;
42420;SDS011;28063;48.140;11.588;2022-08-25T14:19:34;8.25;;;6.57;;
42420;SDS011;28063;48.140;11.588;2022-08-25T14:22:08;15.15;;;6.60;;
42420;SDS011;28063;48.140;11.588;2022-08-25T14:24:36;13.25;;;6.95;;
42420;SDS011;28063;48.140;11.588;2022-08-25T14:27:02;11.40;;;6.65;;
42420;SDS011;28063;48.140;11.588;2022-08-25T14:29:28;14.10;;;6.68;;
42420;SDS011;28063;48.140;11.588;2022-08-25T14:31:55;12.77;;;6.65;;
42420;SDS011;28063;48.140;11.588;2022-08-25T14:34:22;21.58;;;6.97;;
42420;SDS011;28063;48.140;11.588;2022-08-25T14:36:51;9.80;;;6.85;;
42420;SDS011;28063;48.140;11.588;2022-08-25T14:39:17;16.70;;;7.30;;
42420;SDS011;28063;48.140;11.588;2022-08-25T14:41:43;15.23;;;6.97;;
42420;SDS011;28063;48.140;11.588;2022-08-25T14:44:10;11.88;;;7.25;;
42420;SDS011;28063;48.140;11.588;2022-08-25T14:46:39;9.02;;;6.82;;
42420;SDS011;28063;48.140;11.588;2022-08-25T14:49:08;9.18;;;6.97;;
42420;SDS011;28063;48.140;11.588;2022-08-25T14:51:37;10.00;;;6.93;;
42420;SDS011;28063;48.140;11.588;2022-08-25T14:54:06;14.48;;;7.35;;
42420;SDS011;28063;48.140;11.588;2022-08-25T14:59:03;10.18;;;6.72;;
42420;SDS011;28063;48.140;11.588;2022-08-25T15:01:29;15.00;;;7.05;;
42420;SDS011;28063;48.140;11.588;2022-08-25T15:04:05;9.82;;;6.80;;
42420;SDS011;28063;48.140;11.588;2022-08-25T15:06:34;10.45;;;7.03;;
42420;SDS011;28063;48.140;11.588;2022-08-25T15:09:00;20.48;;;8.10;;
42420;SDS011;28063;48.140;11.588;2022-08-25T15:11:37;20.23;;;7.65;;
42420;SDS011;28063;48.140;11.588;2022-08-25T15:14:09;21.02;;;8.38;;
42420;SDS011;28063;48.140;11.588;2022-08-25T15:16:37;16.20;;;7.85;;
42420;SDS011;28063;48.140;11.588;2022-08-25T15:19:06;13.13;;;7.55;;
42420;SDS011;28063;48.140;11.588;2022-08-25T15:21:34;20.50;;;8.05;;
42420;SDS011;28063;48.140;11.588;2022-08-25T15:24:03;17.42;;;8.15;;
42420;SDS011;28063;48.140;11.588;2022-08-25T15:26:43;11.93;;;7.32;;
42420;SDS011;28063;48.140;11.588;2022-08-25T15:29:09;17.15;;;8.15;;
42420;SDS011;28063;48.140;11.588;2022-08-25T15:31:35;19.10;;;8.10;;
42420;SDS011;28063;48.140;11.588;2022-08-25T15:34:03;15.80;;;8.50;;
42420;SDS011;28063;48.140;11.588;2022-08-25T15:36:30;19.30;;;8.85;;
42420;SDS011;28063;48.140;11.588;2022-08-25T15:38:57;20.13;;;8.38;;
42420;SDS011;28063;48.140;11.588;2022-08-25T15:41:23;12.88;;;7.78;;
42420;SDS011;28063;48.140;11.588;2022-08-25T15:43:48;20.08;;;8.32;;
42420;SDS011;28063;48.140;11.588;2022-08-25T15:46:16;20.63;;;8.55;;
42420;SDS011;28063;48.140;11.588;2022-08-25T15:48:53;19.10;;;7.53;;
42420;SDS011;28063;48.140;11.588;2022-08-25T15:51:19;17.48;;;7.97;;
42420;SDS011;28063;48.140;11.588;2022-08-25T15:53:45;13.27;;;7.57;;
42420;SDS011;28063;48.140;11.588;2022-08-25T15:56:11;15.07;;;6.82;;
42420;SDS011;28063;48.140;11.588;2022-08-25T15:58:40;13.63;;;7.32;;
42420;SDS011;28063;48.140;11.588;2022-08-25T16:01:06;17.65;;;7.40;;
42420;SDS011;28063;48.140;11.588;2022-08-25T16:03:45;15.80;;;8.20;;
42420;SDS011;28063;48.140;11.588;2022-08-25T16:06:11;15.57;;;7.35;;
42420;SDS011;28063;48.140;11.588;2022-08-25T16:08:37;24.90;;;8.63;;
42420;SDS011;28063;48.140;11.588;2022-08-25T16:11:04;21.08;;;7.68;;
42420;SDS011;28063;48.140;11.588;2022-08-25T16:13:30;11.23;;;7.07;;
42420;SDS011;28063;48.140;11.588;2022-08-25T16:15:57;17.63;;;7.28;;
42420;SDS011;28063;48.140;11.588;2022-08-25T16:18:23;15.13;;;7.68;;
42420;SDS011;28063;48.140;11.588;2022-08-25T16:20:50;14.60;;;8.30;;
42420;SDS011;28063;48.140;11.588;2022-08-25T16:23:17;15.50;;;7.30;;
42420;SDS011;28063;48.140;11.588;2022-08-25T16:25:45;16.50;;;7.50;;
42420;SDS011;28063;48.140;11.588;2022-08-25T16:28:12;19.95;;;7.70;;
42420;SDS011;28063;48.140;11.588;2022-08-25T16:30:44;18.90;;;7.82;;
42420;SDS011;28063;48.140;11.588;2022-08-25T16:33:11;13.50;;;7.45;;
42420;SDS011;28063;48.140;11.588;2022-08-25T16:35:37;13.68;;;7.13;;
42420;SDS011;28063;48.140;11.588;2022-08-25T16:38:03;22.02;;;7.75;;
42420;SDS011;28063;48.140;11.588;2022-08-25T16:40:29;18.95;;;7.57;;
42420;SDS011;28063;48.140;11.588;2022-08-25T16:42:55;21.10;;;7.57;;
42420;SDS011;28063;48.140;11.588;2022-08-25T16:45:21;15.55;;;7.40;;
42420;SDS011;28063;48.140;11.588;2022-08-25T16:47:47;12.45;;;7.97;;
42420;SDS011;28063;48.140;11.588;2022-08-25T16:50:14;12.50;;;6.72;;
42420;SDS011;28063;48.140;11.588;2022-08-25T16:52:40;16.40;;;6.85;;
42420;SDS011;28063;48.140;11.588;2022-08-25T16:55:25;15.85;;;8.02;;
42420;SDS011;28063;48.140;11.588;2022-08-25T16:57:54;18.33;;;7.10;;
42420;SDS011;28063;48.140;11.588;2022-08-25T17:00:24;17.00;;;6.28;;
42420;SDS011;28063;48.140;11.588;2022-08-25T17:02:56;15.90;;;7.03;;
42420;SDS011;28063;48.140;11.588;2022-08-25T17:05:23;13.43;;;6.75;;
42420;SDS011;28063;48.140;11.588;2022-08-25T17:07:49;15.00;;;7.18;;
42420;SDS011;28063;48.140;11.588;2022-08-25T17:10:37;16.35;;;7.35;;
42420;SDS011;28063;48.140;11.588;2022-08-25T17:13:05;15.02;;;6.88;;
42420;SDS011;28063;48.140;11.588;2022-08-25T17:15:31;16.92;;;7.07;;
42420;SDS011;28063;48.140;11.588;2022-08-25T17:17:57;26.30;;;7.07;;
42420;SDS011;28063;48.140;11.588;2022-08-25T17:20:23;15.10;;;6.38;;
42420;SDS011;28063;48.140;11.588;2022-08-25T17:22:48;15.52;;;6.68;;
42420;SDS011;28063;48.140;11.588;2022-08-25T17:25:15;11.30;;;7.00;;
42420;SDS011;28063;48.140;11.588;2022-08-25T17:27:41;13.00;;;7.43;;
42420;SDS011;28063;48.140;11.588;2022-08-25T17:30:07;12.10;;;6.80;;
42420;SDS011;28063;48.140;11.588;2022-08-25T17:32:33;8.80;;;7.07;;
42420;SDS011;28063;48.140;11.588;2022-08-25T17:35:00;18.20;;;7.38;;
42420;SDS011;28063;48.140;11.588;2022-08-25T17:37:26;15.63;;;6.93;;
42420;SDS011;28063;48.140;11.588;2022-08-25T17:39:52;12.98;;;7.15;;
42420;SDS011;28063;48.140;11.588;2022-08-25T17:42:18;16.58;;;7.20;;
42420;SDS011;28063;48.140;11.588;2022-08-25T17:44:43;8.82;;;6.30;;
42420;SDS011;28063;48.140;11.588;2022-08-25T17:47:09;12.18;;;6.50;;
42420;SDS011;28063;48.140;11.588;2022-08-25T17:49:35;14.88;;;7.43;;
42420;SDS011;28063;48.140;11.588;2022-08-25T17:52:01;20.25;;;7.22;;
42420;SDS011;28063;48.140;11.588;2022-08-25T17:54:27;9.15;;;6.20;;
42420;SDS011;28063;48.140;11.588;2022-08-25T17:56:53;11.18;;;6.55;;
42420;SDS011;28063;48.140;11.588;2022-08-25T17:59:19;10.90;;;6.20;;
42420;SDS011;28063;48.140;11.588;2022-08-25T18:01:44;10.75;;;6.65;;
42420;SDS011;28063;48.140;11.588;2022-08-25T18:04:10;12.75;;;6.82;;
42420;SDS011;28063;48.140;11.588;2022-08-25T18:06:36;10.23;;;6.97;;
42420;SDS011;28063;48.140;11.588;2022-08-25T18:09:02;11.50;;;6.75;;
42420;SDS011;28063;48.140;11.588;2022-08-25T18:11:30;8.50;;;6.15;;
42420;SDS011;28063;48.140;11.588;2022-08-25T18:13:57;8.68;;;5.88;;
42420;SDS011;28063;48.140;11.588;2022-08-25T18:16:24;11.27;;;6.88;;
42420;SDS011;28063;48.140;11.588;2022-08-25T18:18:50;10.95;;;6.35;;
42420;SDS011;28063;48.140;11.588;2022-08-25T18:21:18;13.48;;;7.20;;
42420;SDS011;28063;48.140;11.588;2022-08-25T18:23:44;12.93;;;6.43;;
42420;SDS011;28063;48.140;11.588;2022-08-25T18:26:10;11.85;;;6.82;;
42420;SDS011;28063;48.140;11.588;2022-08-25T18:28:37;13.00;;;7.32;;
42420;SDS011;28063;48.140;11.588;2022-08-25T18:31:03;10.50;;;7.25;;
42420;SDS011;28063;48.140;11.588;2022-08-25T18:33:28;9.50;;;6.38;;
42420;SDS011;28063;48.140;11.588;2022-08-25T18:35:55;16.92;;;7.78;;
42420;SDS011;28063;48.140;11.588;2022-08-25T18:38:21;17.85;;;8.20;;
42420;SDS011;28063;48.140;11.588;2022-08-25T18:41:07;14.48;;;7.43;;
42420;SDS011;28063;48.140;11.588;2022-08-25T18:43:33;16.27;;;6.70;;
42420;SDS011;28063;48.140;11.588;2022-08-25T18:46:01;20.00;;;8.82;;
42420;SDS011;28063;48.140;11.588;2022-08-25T18:48:28;16.92;;;7.60;;
42420;SDS011;28063;48.140;11.588;2022-08-25T18:50:54;13.65;;;7.57;;
42420;SDS011;28063;48.140;11.588;2022-08-25T18:53:21;17.02;;;7.60;;
42420;SDS011;28063;48.140;11.588;2022-08-25T18:55:48;16.90;;;8.63;;
42420;SDS011;28063;48.140;11.588;2022-08-25T18:58:14;19.30;;;8.13;;
42420;SDS011;28063;48.140;11.588;2022-08-25T19:00:41;21.85;;;8.32;;
42420;SDS011;28063;48.140;11.588;2022-08-25T19:03:08;13.50;;;8.55;;
42420;SDS011;28063;48.140;11.588;2022-08-25T19:05:36;16.88;;;8.00;;
42420;SDS011;28063;48.140;11.588;2022-08-25T19:08:05;15.35;;;7.95;;
42420;SDS011;28063;48.140;11.588;2022-08-25T19:10:33;13.68;;;8.65;;
42420;SDS011;28063;48.140;11.588;2022-08-25T19:13:00;17.33;;;8.40;;
42420;SDS011;28063;48.140;11.588;2022-08-25T19:15:27;12.68;;;7.47;;
42420;SDS011;28063;48.140;11.588;2022-08-25T19:17:53;15.82;;;8.25;;
42420;SDS011;28063;48.140;11.588;2022-08-25T19:20:21;11.55;;;8.50;;
42420;SDS011;28063;48.140;11.588;2022-08-25T19:22:47;14.77;;;8.50;;
42420;SDS011;28063;48.140;11.588;2022-08-25T19:25:13;12.95;;;7.97;;
42420;SDS011;28063;48.140;11.588;2022-08-25T19:27:40;14.07;;;8.20;;
42420;SDS011;28063;48.140;11.588;2022-08-25T19:30:06;12.25;;;7.82;;
42420;SDS011;28063;48.140;11.588;2022-08-25T19:32:35;11.48;;;7.38;;
42420;SDS011;28063;48.140;11.588;2022-08-25T19:35:05;11.73;;;9.05;;
42420;SDS011;28063;48.140;11.588;2022-08-25T19:37:32;12.73;;;8.48;;
42420;SDS011;28063;48.140;11.588;2022-08-25T19:39:58;12.50;;;8.10;;
42420;SDS011;28063;48.140;11.588;2022-08-25T19:42:23;10.75;;;7.93;;
42420;SDS011;28063;48.140;11.588;2022-08-25T19:44:51;13.23;;;8.20;;
42420;SDS011;28063;48.140;11.588;2022-08-25T19:47:17;9.93;;;7.38;;
42420;SDS011;28063;48.140;11.588;2022-08-25T19:49:43;13.18;;;8.18;;
42420;SDS011;28063;48.140;11.588;2022-08-25T19:52:10;12.30;;;8.20;;
42420;SDS011;28063;48.140;11.588;2022-08-25T19:54:38;8.95;;;7.63;;
42420;SDS011;28063;48.140;11.588;2022-08-25T19:57:08;12.07;;;8.38;;
42420;SDS011;28063;48.140;11.588;2022-08-25T19:59:35;15.00;;;8.23;;
42420;SDS011;28063;48.140;11.588;2022-08-25T20:02:02;12.63;;;8.57;;
42420;SDS011;28063;48.140;11.588;2022-08-25T20:04:30;10.07;;;8.38;;
42420;SDS011;28063;48.140;11.588;2022-08-25T20:06:56;14.10;;;7.95;;
42420;SDS011;28063;48.140;11.588;2022-08-25T20:09:22;11.15;;;8.63;;
42420;SDS011;28063;48.140;11.588;2022-08-25T20:11:49;11.50;;;8.40;;
42420;SDS011;28063;48.140;11.588;2022-08-25T20:14:15;12.40;;;8.52;;
42420;SDS011;28063;48.140;11.588;2022-08-25T20:16:41;10.32;;;7.45;;
42420;SDS011;28063;48.140;11.588;2022-08-25T20:19:08;13.70;;;8.32;;
42420;SDS011;28063;48.140;11.588;2022-08-25T20:21:34;13.45;;;7.97;;
42420;SDS011;28063;48.140;11.588;2022-08-25T20:24:03;11.95;;;7.85;;
42420;SDS011;28063;48.140;11.588;2022-08-25T20:26:47;13.40;;;8.70;;
42420;SDS011;28063;48.140;11.588;2022-08-25T20:29:13;13.48;;;8.82;;
42420;SDS011;28063;48.140;11.588;2022-08-25T20:31:38;13.90;;;9.00;;
42420;SDS011;28063;48.140;11.588;2022-08-25T20:34:05;11.10;;;7.82;;
42420;SDS011;28063;48.140;11.588;2022-08-25T20:36:30;10.35;;;8.07;;
42420;SDS011;28063;48.140;11.588;2022-08-25T20:38:56;14.10;;;8.60;;
42420;SDS011;28063;48.140;11.588;2022-08-25T20:41:22;13.88;;;8.85;;
42420;SDS011;28063;48.140;11.588;2022-08-25T20:43:48;14.15;;;8.25;;
42420;SDS011;28063;48.140;11.588;2022-08-25T20:46:13;10.27;;;8.07;;
42420;SDS011;28063;48.140;11.588;2022-08-25T20:48:40;10.38;;;7.60;;
42420;SDS011;28063;48.140;11.588;2022-08-25T20:51:06;13.10;;;8.30;;
42420;SDS011;28063;48.140;11.588;2022-08-25T20:53:34;9.05;;;7.28;;
42420;SDS011;28063;48.140;11.588;2022-08-25T20:56:00;7.65;;;6.82;;
42420;SDS011;28063;48.140;11.588;2022-08-25T20:58:28;8.20;;;7.13;;
42420;SDS011;28063;48.140;11.588;2022-08-25T21:00:53;9.40;;;7.78;;
42420;SDS011;28063;48.140;11.588;2022-08-25T21:03:19;8.45;;;7.40;;
42420;SDS011;28063;48.140;11.588;2022-08-25T21:05:45;8.57;;;7.28;;
42420;SDS011;28063;48.140;11.588;2022-08-25T21:08:10;8.38;;;7.63;;
42420;SDS011;28063;48.140;11.588;2022-08-25T21:10:36;8.25;;;7.32;;
42420;SDS011;28063;48.140;11.588;2022-08-25T21:13:02;13.45;;;8.93;;
42420;SDS011;28063;48.140;11.588;2022-08-25T21:15:27;11.20;;;8.35;;
42420;SDS011;28063;48.140;11.588;2022-08-25T21:17:53;13.02;;;8.30;;
42420;SDS011;28063;48.140;11.588;2022-08-25T21:20:20;8.65;;;7.82;;
42420;SDS011;28063;48.140;11.588;2022-08-25T21:22:47;10.30;;;7.57;;
42420;SDS011;28063;48.140;11.588;2022-08-25T21:25:14;8.75;;;7.72;;
42420;SDS011;28063;48.140;11.588;2022-08-25T21:27:41;8.23;;;7.47;;
42420;SDS011;28063;48.140;11.588;2022-08-25T21:30:07;10.85;;;8.57;;
42420;SDS011;28063;48.140;11.588;2022-08-25T21:32:33;10.57;;;7.95;;
42420;SDS011;28063;48.140;11.588;2022-08-25T21:34:59;14.98;;;8.40;;
42420;SDS011;28063;48.140;11.588;2022-08-25T21:37:25;11.05;;;8.63;;
42420;SDS011;28063;48.140;11.588;2022-08-25T21:39:51;8.50;;;7.60;;
42420;SDS011;28063;48.140;11.588;2022-08-25T21:42:18;8.35;;;7.15;;
42420;SDS011;28063;48.140;11.588;2022-08-25T21:44:44;8.52;;;7.72;;
42420;SDS011;28063;48.140;11.588;2022-08-25T21:47:10;8.80;;;7.45;;
42420;SDS011;28063;48.140;11.588;2022-08-25T21:49:36;8.90;;;7.93;;
42420;SDS011;28063;48.140;11.588;2022-08-25T21:52:02;8.05;;;7.35;;
42420;SDS011;28063;48.140;11.588;2022-08-25T21:54:28;9.82;;;7.47;;
42420;SDS011;28063;48.140;11.588;2022-08-25T21:56:55;9.32;;;8.25;;
42420;SDS011;28063;48.140;11.588;2022-08-25T21:59:24;13.07;;;8.50;;
42420;SDS011;28063;48.140;11.588;2022-08-25T22:01:56;11.57;;;8.70;;
42420;SDS011;28063;48.140;11.588;2022-08-25T22:04:24;9.57;;;8.52;;